createdAt,value
2023-01-30T00:03:34.594Z,77.35
2023-01-30T00:08:36.823Z,77.39
2023-01-30T00:13:42.921Z,77.46
2023-01-30T00:18:45.387Z,77.52
2023-01-30T00:23:47.604Z,77.64
2023-01-30T00:28:49.819Z,77.52
2023-01-30T00:33:52.014Z,77.41
2023-01-30T00:38:57.391Z,77.71
2023-01-30T00:44:34.845Z,77.58
2023-01-30T00:49:37.718Z,77.60
2023-01-30T00:54:40.090Z,77.79
2023-01-30T00:59:42.314Z,77.67
2023-01-30T01:04:47.272Z,77.93
2023-01-30T01:09:49.639Z,77.96
2023-01-30T01:14:51.975Z,77.82
2023-01-30T01:19:54.465Z,77.99
2023-01-30T01:24:56.762Z,77.89
2023-01-30T01:30:00.041Z,78.02
2023-01-30T01:35:06.410Z,77.99
2023-01-30T01:40:30.718Z,78.10
2023-01-30T01:45:33.168Z,78.05
2023-01-30T01:51:21.269Z,78.65
2023-01-30T01:56:24.309Z,78.33
2023-01-30T02:01:26.994Z,78.20
2023-01-30T02:06:29.988Z,78.32
2023-01-30T02:11:42.044Z,78.40
2023-01-30T02:16:44.762Z,78.45
2023-01-30T02:22:18.283Z,78.76
2023-01-30T02:27:47.319Z,78.92
2023-01-30T02:33:01.711Z,78.61
2023-01-30T02:38:14.495Z,78.66
2023-01-30T02:43:16.840Z,78.62
2023-01-30T02:48:28.663Z,78.84
2023-01-30T02:53:33.912Z,78.84
2023-01-30T02:58:40.209Z,78.83
2023-01-30T03:03:58.164Z,79.19
2023-01-30T03:09:06.355Z,78.88
2023-01-30T03:14:20.713Z,79.29
2023-01-30T03:19:23.142Z,78.86
2023-01-30T03:24:25.498Z,78.88
2023-01-30T03:29:27.763Z,78.95
2023-01-30T03:34:30.356Z,78.96
2023-01-30T03:39:32.617Z,78.90
2023-01-30T03:44:34.957Z,78.95
2023-01-30T03:49:37.314Z,78.83
2023-01-30T03:54:39.848Z,78.89
2023-01-30T03:59:42.226Z,78.86
2023-01-30T04:04:47.082Z,78.72
2023-01-30T04:09:49.585Z,79.02
2023-01-30T04:14:54.532Z,78.76
2023-01-30T04:20:11.999Z,78.53
2023-01-30T04:25:19.755Z,78.55
2023-01-30T04:30:22.662Z,78.83
2023-01-30T04:35:29.596Z,78.83
2023-01-30T04:40:32.798Z,78.41
2023-01-30T04:45:35.094Z,78.76
2023-01-30T04:50:37.411Z,78.62
2023-01-30T04:55:39.844Z,78.72
2023-01-30T05:00:42.603Z,78.61
2023-01-30T05:05:48.375Z,78.39
2023-01-30T05:10:50.530Z,78.43
2023-01-30T05:15:52.778Z,78.37
2023-01-30T05:20:55.816Z,78.58
2023-01-30T05:25:58.123Z,78.64
2023-01-30T05:31:08.813Z,78.54
2023-01-30T05:36:15.424Z,78.33
2023-01-30T05:41:17.953Z,78.47
2023-01-30T05:46:21.271Z,78.51
2023-01-30T05:51:25.365Z,78.34
2023-01-30T05:56:27.567Z,78.42
2023-01-30T06:01:30.538Z,78.63
2023-01-30T06:06:32.791Z,78.46
2023-01-30T06:11:35.017Z,78.53
2023-01-30T06:16:37.372Z,78.61
2023-01-30T06:21:39.835Z,78.76
2023-01-30T06:26:42.194Z,78.51
2023-01-30T06:31:44.853Z,78.72
2023-01-30T06:36:47.202Z,78.66
2023-01-30T06:41:49.506Z,78.70
2023-01-30T06:46:52.969Z,78.78
2023-01-30T06:51:55.214Z,78.69
2023-01-30T06:56:57.558Z,78.70
2023-01-30T07:01:59.827Z,78.74
2023-01-30T07:07:02.087Z,78.77
2023-01-30T07:12:05.777Z,78.70
2023-01-30T07:17:07.900Z,78.65
2023-01-30T07:22:10.217Z,78.65
2023-01-30T07:27:13.362Z,78.62
2023-01-30T07:32:18.847Z,78.86
2023-01-30T07:37:21.018Z,78.90
2023-01-30T07:42:23.569Z,78.83
2023-01-30T07:47:28.265Z,79.07
2023-01-30T07:52:30.448Z,79.30
2023-01-30T07:57:32.625Z,78.90
2023-01-30T08:02:34.781Z,78.87
2023-01-30T08:07:37.258Z,79.02
2023-01-30T08:12:40.853Z,78.86
2023-01-30T08:17:43.075Z,79.06
2023-01-30T08:22:45.238Z,79.04
2023-01-30T08:27:47.475Z,79.47
2023-01-30T08:32:49.642Z,79.26
2023-01-30T08:37:51.811Z,79.46
2023-01-30T08:42:53.986Z,79.43
2023-01-30T08:48:04.628Z,79.54
2023-01-30T08:53:09.261Z,79.42
2023-01-30T08:58:11.493Z,79.44
2023-01-30T09:03:14.835Z,79.49
2023-01-30T09:08:17.178Z,79.39
2023-01-30T09:13:19.434Z,79.43
2023-01-30T09:18:21.687Z,79.47
2023-01-30T09:23:23.846Z,79.37
2023-01-30T09:28:26.324Z,79.49
2023-01-30T09:33:29.023Z,79.72
2023-01-30T09:38:31.201Z,79.40
2023-01-30T09:43:56.686Z,79.64
2023-01-30T09:49:08.386Z,79.31
2023-01-30T09:54:28.914Z,79.75
2023-01-30T09:59:40.973Z,79.36
2023-01-30T10:05:00.550Z,79.36
2023-01-30T10:10:43.133Z,79.58
2023-01-30T10:16:10.336Z,79.77
2023-01-30T10:21:23.593Z,79.38
2023-01-30T10:26:27.571Z,79.30
2023-01-30T10:31:41.379Z,79.35
2023-01-30T10:36:47.767Z,79.36
2023-01-30T10:42:04.249Z,79.18
2023-01-30T10:47:16.008Z,79.11
2023-01-30T10:52:32.116Z,79.23
2023-01-30T10:57:56.308Z,79.48
2023-01-30T11:03:37.418Z,79.48
2023-01-30T11:08:39.613Z,79.34
2023-01-30T11:13:41.911Z,79.37
2023-01-30T11:19:19.567Z,79.38
2023-01-30T11:24:22.069Z,79.31
2023-01-30T11:29:38.528Z,79.58
2023-01-30T11:34:42.648Z,79.47
2023-01-30T11:39:51.749Z,79.73
2023-01-30T11:45:15.726Z,79.93
2023-01-30T11:50:28.707Z,79.55
2023-01-30T11:55:36.672Z,79.69
2023-01-30T12:00:41.408Z,79.69
2023-01-30T12:05:45.930Z,79.66
2023-01-30T12:11:07.791Z,79.79
2023-01-30T12:16:30.028Z,80.06
2023-01-30T12:21:42.827Z,79.62
2023-01-30T12:26:48.466Z,79.67
2023-01-30T12:32:23.514Z,79.75
2023-01-30T12:37:28.874Z,79.61
2023-01-30T12:42:34.064Z,79.64
2023-01-30T12:48:00.741Z,79.89
2023-01-30T12:53:14.061Z,79.93
2023-01-30T12:58:44.141Z,79.70
2023-01-30T13:03:54.260Z,79.63
2023-01-30T13:09:32.433Z,80.00
2023-01-30T13:14:52.415Z,79.74
2023-01-30T13:20:21.136Z,79.79
2023-01-30T13:25:32.013Z,79.49
2023-01-30T13:30:34.587Z,79.19
2023-01-30T13:35:42.524Z,79.73
2023-01-30T13:40:45.653Z,79.88
2023-01-30T13:45:49.447Z,79.90
2023-01-30T13:51:27.942Z,80.22
2023-01-30T13:57:08.519Z,80.50
2023-01-30T14:02:18.061Z,80.19
2023-01-30T14:07:39.009Z,80.14
2023-01-30T14:12:40.921Z,79.65
2023-01-30T14:17:58.348Z,80.02
2023-01-30T14:23:23.136Z,80.21
2023-01-30T14:28:25.442Z,79.90
2023-01-30T14:33:27.554Z,79.94
2023-01-30T14:38:37.016Z,79.93
2023-01-30T14:43:49.702Z,80.01
2023-01-30T14:49:08.611Z,79.80
2023-01-30T14:54:14.779Z,79.65
2023-01-30T14:59:18.024Z,79.65
2023-01-30T15:04:20.467Z,79.58
2023-01-30T15:09:25.888Z,79.40
2023-01-30T15:14:50.465Z,79.22
2023-01-30T15:20:05.215Z,79.14
2023-01-30T15:25:25.342Z,79.06
2023-01-30T15:30:49.418Z,78.81
2023-01-30T15:35:51.779Z,78.78
2023-01-30T15:40:55.442Z,78.82
2023-01-30T15:46:37.903Z,78.83
2023-01-30T15:51:40.418Z,78.70
2023-01-30T15:56:45.842Z,78.54
2023-01-30T16:01:48.699Z,78.46
2023-01-30T16:06:51.025Z,78.28
2023-01-30T16:11:53.380Z,78.34
2023-01-30T16:17:13.519Z,78.37
2023-01-30T16:22:17.608Z,78.09
2023-01-30T16:27:30.626Z,78.21
2023-01-30T16:32:33.938Z,78.09
2023-01-30T16:37:58.752Z,77.90
2023-01-30T16:43:02.198Z,77.86
2023-01-30T16:48:17.613Z,77.84
2023-01-30T16:53:22.546Z,77.98
2023-01-30T16:58:28.981Z,77.68
2023-01-30T17:03:34.310Z,77.80
2023-01-30T17:08:52.450Z,77.49
2023-01-30T17:14:18.946Z,77.62
2023-01-30T17:19:22.513Z,77.69
2023-01-30T17:24:26.117Z,77.53
2023-01-30T17:29:42.928Z,77.65
2023-01-30T17:34:46.011Z,77.70
2023-01-30T17:39:48.594Z,77.43
2023-01-30T17:44:51.038Z,77.46
2023-01-30T17:49:53.387Z,77.63
2023-01-30T17:54:55.748Z,77.78
2023-01-30T17:59:58.080Z,77.56
2023-01-30T18:05:00.411Z,77.60
2023-01-30T18:10:02.775Z,77.62
2023-01-30T18:15:06.579Z,77.57
2023-01-30T18:20:10.540Z,77.51
2023-01-30T18:25:16.354Z,77.61
2023-01-30T18:30:19.212Z,77.54
2023-01-30T18:35:22.770Z,77.64
2023-01-30T18:40:40.474Z,77.60
2023-01-30T18:45:45.460Z,77.61
2023-01-30T18:50:48.012Z,77.47
2023-01-30T18:55:50.998Z,77.73
2023-01-30T19:00:53.229Z,77.52
2023-01-30T19:05:55.712Z,77.49
2023-01-30T19:11:30.535Z,77.63
2023-01-30T19:16:34.491Z,77.35
2023-01-30T19:21:37.177Z,77.35
2023-01-30T19:26:39.522Z,77.56
2023-01-30T19:31:42.419Z,77.74
2023-01-30T19:36:44.802Z,77.95
2023-01-30T19:41:47.156Z,77.73
2023-01-30T19:46:49.737Z,77.77
2023-01-30T19:51:52.036Z,77.86
2023-01-30T19:56:54.339Z,78.01
2023-01-30T20:01:56.647Z,77.87
2023-01-30T20:06:58.962Z,78.18
2023-01-30T20:12:01.260Z,78.30
2023-01-30T20:17:05.768Z,78.32
2023-01-30T20:22:08.654Z,78.45
2023-01-30T20:27:10.884Z,78.54
2023-01-30T20:32:13.118Z,78.75
2023-01-30T20:37:15.323Z,78.66
2023-01-30T20:42:18.931Z,78.92
2023-01-30T20:47:24.279Z,78.86
2023-01-30T20:52:26.444Z,78.91
2023-01-30T20:57:31.505Z,79.23
2023-01-30T21:02:33.800Z,79.12
2023-01-30T21:07:35.983Z,79.18
2023-01-30T21:12:38.169Z,79.04
2023-01-30T21:17:40.387Z,79.25
2023-01-30T21:22:42.492Z,78.96
2023-01-30T21:27:44.821Z,79.26
2023-01-30T21:32:46.984Z,79.38
2023-01-30T21:38:07.599Z,79.29
2023-01-30T21:43:15.628Z,79.35
2023-01-30T21:48:17.798Z,79.37
2023-01-30T21:53:20.187Z,79.41
2023-01-30T21:58:22.318Z,79.50
2023-01-30T22:03:28.315Z,79.65
2023-01-30T22:08:30.463Z,79.50
2023-01-30T22:13:34.564Z,79.73
2023-01-30T22:18:36.699Z,79.49
2023-01-30T22:23:43.723Z,79.54
2023-01-30T22:28:46.191Z,79.61
2023-01-30T22:33:53.982Z,79.89
2023-01-30T22:38:56.522Z,79.64
2023-01-30T22:43:59.951Z,79.93
2023-01-30T22:49:03.182Z,79.65
2023-01-30T22:54:10.943Z,79.94
2023-01-30T22:59:13.582Z,79.95
2023-01-30T23:04:17.884Z,79.98
2023-01-30T23:09:23.709Z,79.91
2023-01-30T23:14:25.786Z,79.78
2023-01-30T23:19:28.058Z,80.00
2023-01-30T23:24:30.221Z,79.75
2023-01-30T23:29:32.654Z,79.78
2023-01-30T23:34:35.479Z,79.82
2023-01-30T23:39:37.760Z,79.78
2023-01-30T23:44:40.193Z,79.63
2023-01-30T23:49:42.427Z,79.65
2023-01-30T23:54:44.833Z,79.81
2023-01-30T23:59:47.145Z,79.44
